Terminal Aerodrome Forecast
Issued by NWS

Home | Current Version | Previous Version | Text Only | Print | Product List | Glossary On
Versions: 1 2 3 4 5 6 7 8 9 10 11 12 13 14 15 16 17 18 19 20
000
FTUS42 KMLB 071120
TAFTIX
TAF
KTIX 071120Z 0712/0812 VRB04KT P6SM FEW030 SCT060
     FM071800 11009KT P6SM SCT040
      TEMPO 0719/0721 3SM TSRA BKN030CB
     FM080000 14004KT P6SM SCT150 BKN250=

USA.gov is the U.S. government's official web portal to all federal, state and local government web resources and services.